sensor_id;sensor_type;location;lat;lon;timestamp;temperature;humidity
46366;DHT22;32073;49.166;8.076;2022-12-18T00:00:43;-2.20;56.80
46366;DHT22;32073;49.166;8.076;2022-12-18T00:04:44;-2.20;56.90
46366;DHT22;32073;49.166;8.076;2022-12-18T00:08:45;-2.30;56.70
46366;DHT22;32073;49.166;8.076;2022-12-18T00:12:46;-2.20;56.80
46366;DHT22;32073;49.166;8.076;2022-12-18T00:16:47;-2.20;56.80
46366;DHT22;32073;49.166;8.076;2022-12-18T00:20:48;-2.20;56.80
46366;DHT22;32073;49.166;8.076;2022-12-18T00:24:48;-2.20;56.80
46366;DHT22;32073;49.166;8.076;2022-12-18T00:28:50;-2.20;56.90
46366;DHT22;32073;49.166;8.076;2022-12-18T00:32:51;-2.20;56.70
46366;DHT22;32073;49.166;8.076;2022-12-18T00:36:52;-2.20;56.80
46366;DHT22;32073;49.166;8.076;2022-12-18T00:40:53;-2.20;56.80
46366;DHT22;32073;49.166;8.076;2022-12-18T00:44:53;-2.20;56.80
46366;DHT22;32073;49.166;8.076;2022-12-18T00:48:54;-2.20;56.80
46366;DHT22;32073;49.166;8.076;2022-12-18T00:52:55;-2.20;56.90
46366;DHT22;32073;49.166;8.076;2022-12-18T00:56:55;-2.20;56.90
46366;DHT22;32073;49.166;8.076;2022-12-18T01:00:56;-2.30;56.90
46366;DHT22;32073;49.166;8.076;2022-12-18T01:04:57;-2.20;57.00
46366;DHT22;32073;49.166;8.076;2022-12-18T01:08:57;-2.30;57.00
46366;DHT22;32073;49.166;8.076;2022-12-18T01:12:58;-2.20;57.10
46366;DHT22;32073;49.166;8.076;2022-12-18T01:16:59;-2.20;57.20
46366;DHT22;32073;49.166;8.076;2022-12-18T01:20:59;-2.20;57.20
46366;DHT22;32073;49.166;8.076;2022-12-18T01:25:00;-2.20;57.20
46366;DHT22;32073;49.166;8.076;2022-12-18T01:29:01;-2.20;57.10
46366;DHT22;32073;49.166;8.076;2022-12-18T01:33:04;-2.10;57.30
46366;DHT22;32073;49.166;8.076;2022-12-18T01:37:05;-2.20;57.30
46366;DHT22;32073;49.166;8.076;2022-12-18T01:41:06;-2.20;57.20
46366;DHT22;32073;49.166;8.076;2022-12-18T01:49:14;-2.10;57.50
46366;DHT22;32073;49.166;8.076;2022-12-18T01:53:21;-2.10;57.30
46366;DHT22;32073;49.166;8.076;2022-12-18T01:57:23;-2.10;57.40
46366;DHT22;32073;49.166;8.076;2022-12-18T02:01:25;-2.10;57.40
46366;DHT22;32073;49.166;8.076;2022-12-18T02:05:41;-2.10;57.40
46366;DHT22;32073;49.166;8.076;2022-12-18T02:09:51;-2.10;57.60
46366;DHT22;32073;49.166;8.076;2022-12-18T02:18:36;-2.00;57.60
46366;DHT22;32073;49.166;8.076;2022-12-18T02:23:08;-2.00;57.60
46366;DHT22;32073;49.166;8.076;2022-12-18T02:27:15;-2.00;57.90
46366;DHT22;32073;49.166;8.076;2022-12-18T02:31:19;-2.00;57.60
46366;DHT22;32073;49.166;8.076;2022-12-18T02:35:29;-2.00;57.70
46366;DHT22;32073;49.166;8.076;2022-12-18T02:39:33;-1.90;57.70
46366;DHT22;32073;49.166;8.076;2022-12-18T02:43:34;-1.90;57.80
46366;DHT22;32073;49.166;8.076;2022-12-18T02:47:38;-1.90;57.60
46366;DHT22;32073;49.166;8.076;2022-12-18T02:52:13;-1.80;57.70
46366;DHT22;32073;49.166;8.076;2022-12-18T02:56:44;-1.80;58.00
46366;DHT22;32073;49.166;8.076;2022-12-18T03:01:15;-1.80;57.70
46366;DHT22;32073;49.166;8.076;2022-12-18T03:05:23;-1.80;57.80
46366;DHT22;32073;49.166;8.076;2022-12-18T03:09:36;-1.80;57.60
46366;DHT22;32073;49.166;8.076;2022-12-18T03:13:59;-1.80;57.60
46366;DHT22;32073;49.166;8.076;2022-12-18T03:18:15;-1.80;57.80
46366;DHT22;32073;49.166;8.076;2022-12-18T03:22:18;-1.80;57.60
46366;DHT22;32073;49.166;8.076;2022-12-18T03:26:22;-1.90;57.50
46366;DHT22;32073;49.166;8.076;2022-12-18T03:30:26;-1.90;57.60
46366;DHT22;32073;49.166;8.076;2022-12-18T03:34:31;-1.90;57.60
46366;DHT22;32073;49.166;8.076;2022-12-18T03:38:33;-1.90;57.60
46366;DHT22;32073;49.166;8.076;2022-12-18T03:42:43;-1.90;57.60
46366;DHT22;32073;49.166;8.076;2022-12-18T03:47:08;-1.90;57.60
46366;DHT22;32073;49.166;8.076;2022-12-18T03:51:26;-1.90;57.80
46366;DHT22;32073;49.166;8.076;2022-12-18T03:55:32;-1.90;57.60
46366;DHT22;32073;49.166;8.076;2022-12-18T03:59:35;-1.90;57.40
46366;DHT22;32073;49.166;8.076;2022-12-18T04:03:37;-1.90;57.40
46366;DHT22;32073;49.166;8.076;2022-12-18T04:07:39;-2.00;57.40
46366;DHT22;32073;49.166;8.076;2022-12-18T04:11:43;-2.00;57.30
46366;DHT22;32073;49.166;8.076;2022-12-18T04:15:44;-2.00;57.40
46366;DHT22;32073;49.166;8.076;2022-12-18T04:19:45;-2.00;57.40
46366;DHT22;32073;49.166;8.076;2022-12-18T04:23:46;-2.00;57.40
46366;DHT22;32073;49.166;8.076;2022-12-18T04:27:46;-2.10;57.40
46366;DHT22;32073;49.166;8.076;2022-12-18T04:31:47;-2.10;57.50
46366;DHT22;32073;49.166;8.076;2022-12-18T04:35:48;-2.10;57.60
46366;DHT22;32073;49.166;8.076;2022-12-18T04:39:48;-2.10;57.60
46366;DHT22;32073;49.166;8.076;2022-12-18T04:43:49;-2.10;57.50
46366;DHT22;32073;49.166;8.076;2022-12-18T04:47:49;-2.20;57.50
46366;DHT22;32073;49.166;8.076;2022-12-18T04:51:50;-2.10;57.60
46366;DHT22;32073;49.166;8.076;2022-12-18T04:56:02;-2.10;57.60
46366;DHT22;32073;49.166;8.076;2022-12-18T05:00:04;-2.10;57.70
46366;DHT22;32073;49.166;8.076;2022-12-18T05:04:06;-2.20;57.40
46366;DHT22;32073;49.166;8.076;2022-12-18T05:08:07;-2.20;57.40
46366;DHT22;32073;49.166;8.076;2022-12-18T05:12:07;-2.20;57.40
46366;DHT22;32073;49.166;8.076;2022-12-18T05:16:08;-2.30;57.40
46366;DHT22;32073;49.166;8.076;2022-12-18T05:20:09;-2.30;57.50
46366;DHT22;32073;49.166;8.076;2022-12-18T05:24:10;-2.30;57.60
46366;DHT22;32073;49.166;8.076;2022-12-18T05:28:11;-2.30;57.60
46366;DHT22;32073;49.166;8.076;2022-12-18T05:32:11;-2.30;57.60
46366;DHT22;32073;49.166;8.076;2022-12-18T05:36:12;-2.30;57.50
46366;DHT22;32073;49.166;8.076;2022-12-18T05:40:13;-2.40;57.50
46366;DHT22;32073;49.166;8.076;2022-12-18T05:44:13;-2.40;57.50
46366;DHT22;32073;49.166;8.076;2022-12-18T05:48:14;-2.30;57.60
46366;DHT22;32073;49.166;8.076;2022-12-18T05:52:15;-2.40;57.60
46366;DHT22;32073;49.166;8.076;2022-12-18T05:56:20;-2.40;57.70
46366;DHT22;32073;49.166;8.076;2022-12-18T06:00:21;-2.40;57.70
46366;DHT22;32073;49.166;8.076;2022-12-18T06:04:22;-2.50;57.70
46366;DHT22;32073;49.166;8.076;2022-12-18T06:08:23;-2.40;57.60
46366;DHT22;32073;49.166;8.076;2022-12-18T06:12:23;-2.50;57.60
46366;DHT22;32073;49.166;8.076;2022-12-18T06:16:25;-2.50;57.60
46366;DHT22;32073;49.166;8.076;2022-12-18T06:20:26;-2.50;57.70
46366;DHT22;32073;49.166;8.076;2022-12-18T06:24:27;-2.50;57.70
46366;DHT22;32073;49.166;8.076;2022-12-18T06:28:27;-2.50;57.80
46366;DHT22;32073;49.166;8.076;2022-12-18T06:32:28;-2.60;57.70
46366;DHT22;32073;49.166;8.076;2022-12-18T06:36:28;-2.60;57.70
46366;DHT22;32073;49.166;8.076;2022-12-18T06:40:29;-2.50;57.80
46366;DHT22;32073;49.166;8.076;2022-12-18T06:44:30;-2.60;57.70
46366;DHT22;32073;49.166;8.076;2022-12-18T06:48:31;-2.60;57.70
46366;DHT22;32073;49.166;8.076;2022-12-18T06:52:32;-2.60;57.70
46366;DHT22;32073;49.166;8.076;2022-12-18T06:56:34;-2.60;57.80
46366;DHT22;32073;49.166;8.076;2022-12-18T07:00:35;-2.50;57.80
46366;DHT22;32073;49.166;8.076;2022-12-18T07:04:35;-2.50;57.80
46366;DHT22;32073;49.166;8.076;2022-12-18T07:08:36;-2.50;57.80
46366;DHT22;32073;49.166;8.076;2022-12-18T07:12:37;-2.50;57.80
46366;DHT22;32073;49.166;8.076;2022-12-18T07:16:37;-2.50;57.80
46366;DHT22;32073;49.166;8.076;2022-12-18T07:20:39;-2.50;57.80
46366;DHT22;32073;49.166;8.076;2022-12-18T07:24:39;-2.60;57.60
46366;DHT22;32073;49.166;8.076;2022-12-18T07:28:41;-2.60;57.60
46366;DHT22;32073;49.166;8.076;2022-12-18T07:32:41;-2.60;57.70
46366;DHT22;32073;49.166;8.076;2022-12-18T07:36:42;-2.60;57.60
46366;DHT22;32073;49.166;8.076;2022-12-18T07:40:43;-2.60;57.60
46366;DHT22;32073;49.166;8.076;2022-12-18T07:44:44;-2.60;57.70
46366;DHT22;32073;49.166;8.076;2022-12-18T07:48:45;-2.60;57.80
46366;DHT22;32073;49.166;8.076;2022-12-18T07:52:45;-2.60;57.80
46366;DHT22;32073;49.166;8.076;2022-12-18T07:56:46;-2.60;57.80
46366;DHT22;32073;49.166;8.076;2022-12-18T08:00:47;-2.50;57.90
46366;DHT22;32073;49.166;8.076;2022-12-18T08:04:48;-2.50;57.90
46366;DHT22;32073;49.166;8.076;2022-12-18T08:08:48;-2.50;57.90
46366;DHT22;32073;49.166;8.076;2022-12-18T08:12:50;-2.40;58.00
46366;DHT22;32073;49.166;8.076;2022-12-18T08:16:51;-2.40;58.00
46366;DHT22;32073;49.166;8.076;2022-12-18T08:20:52;-2.30;58.00
46366;DHT22;32073;49.166;8.076;2022-12-18T08:24:53;-2.30;58.00
46366;DHT22;32073;49.166;8.076;2022-12-18T08:28:55;-2.30;58.00
46366;DHT22;32073;49.166;8.076;2022-12-18T08:32:56;-2.30;58.00
46366;DHT22;32073;49.166;8.076;2022-12-18T08:36:57;-2.20;58.00
46366;DHT22;32073;49.166;8.076;2022-12-18T08:41:02;-2.20;58.00
46366;DHT22;32073;49.166;8.076;2022-12-18T08:45:05;-2.20;58.00
46366;DHT22;32073;49.166;8.076;2022-12-18T08:49:06;-2.10;58.00
46366;DHT22;32073;49.166;8.076;2022-12-18T08:53:08;-2.10;58.00
46366;DHT22;32073;49.166;8.076;2022-12-18T08:57:09;-2.10;57.90
46366;DHT22;32073;49.166;8.076;2022-12-18T09:01:11;-2.10;57.80
46366;DHT22;32073;49.166;8.076;2022-12-18T09:05:12;-2.10;57.80
46366;DHT22;32073;49.166;8.076;2022-12-18T09:09:13;-2.00;58.00
46366;DHT22;32073;49.166;8.076;2022-12-18T09:13:15;-2.00;58.00
46366;DHT22;32073;49.166;8.076;2022-12-18T09:17:16;-2.00;58.00
46366;DHT22;32073;49.166;8.076;2022-12-18T09:21:20;-1.90;58.10
46366;DHT22;32073;49.166;8.076;2022-12-18T09:25:21;-1.90;58.20
46366;DHT22;32073;49.166;8.076;2022-12-18T09:29:22;-1.80;58.30
46366;DHT22;32073;49.166;8.076;2022-12-18T09:33:22;-1.70;58.40
46366;DHT22;32073;49.166;8.076;2022-12-18T09:37:23;-1.60;58.40
46366;DHT22;32073;49.166;8.076;2022-12-18T09:41:40;-1.50;58.40
46366;DHT22;32073;49.166;8.076;2022-12-18T09:45:55;-1.40;58.30
46366;DHT22;32073;49.166;8.076;2022-12-18T09:50:02;-1.30;58.30
46366;DHT22;32073;49.166;8.076;2022-12-18T09:54:16;-1.20;58.40
46366;DHT22;32073;49.166;8.076;2022-12-18T09:58:39;-1.10;58.30
46366;DHT22;32073;49.166;8.076;2022-12-18T10:02:44;-1.00;58.40
46366;DHT22;32073;49.166;8.076;2022-12-18T10:07:13;-0.90;58.50
46366;DHT22;32073;49.166;8.076;2022-12-18T10:20:30;-0.50;58.20
46366;DHT22;32073;49.166;8.076;2022-12-18T10:25:18;-0.50;58.00
46366;DHT22;32073;49.166;8.076;2022-12-18T10:29:28;-0.40;58.10
46366;DHT22;32073;49.166;8.076;2022-12-18T10:33:30;-0.30;58.00
46366;DHT22;32073;49.166;8.076;2022-12-18T10:37:33;-0.20;58.00
46366;DHT22;32073;49.166;8.076;2022-12-18T10:41:33;-0.20;58.00
46366;DHT22;32073;49.166;8.076;2022-12-18T10:45:34;-0.10;58.20
46366;DHT22;32073;49.166;8.076;2022-12-18T10:49:35;0.00;58.80
46366;DHT22;32073;49.166;8.076;2022-12-18T10:53:37;0.10;58.00
46366;DHT22;32073;49.166;8.076;2022-12-18T10:57:40;0.20;57.80
46366;DHT22;32073;49.166;8.076;2022-12-18T11:06:03;0.40;57.60
46366;DHT22;32073;49.166;8.076;2022-12-18T11:10:19;0.40;57.40
46366;DHT22;32073;49.166;8.076;2022-12-18T11:14:33;0.50;57.90
46366;DHT22;32073;49.166;8.076;2022-12-18T11:18:41;0.50;57.20
46366;DHT22;32073;49.166;8.076;2022-12-18T11:22:42;0.60;57.20
46366;DHT22;32073;49.166;8.076;2022-12-18T11:26:43;0.50;57.00
46366;DHT22;32073;49.166;8.076;2022-12-18T11:30:45;0.50;57.00
46366;DHT22;32073;49.166;8.076;2022-12-18T11:34:52;0.60;57.00
46366;DHT22;32073;49.166;8.076;2022-12-18T11:39:03;0.50;56.80
46366;DHT22;32073;49.166;8.076;2022-12-18T11:43:14;0.50;56.80
46366;DHT22;32073;49.166;8.076;2022-12-18T11:51:49;0.50;56.60
46366;DHT22;32073;49.166;8.076;2022-12-18T12:00:22;0.50;56.60
46366;DHT22;32073;49.166;8.076;2022-12-18T12:04:41;0.50;56.80
46366;DHT22;32073;49.166;8.076;2022-12-18T12:27:10;0.70;56.70
46366;DHT22;32073;49.166;8.076;2022-12-18T12:36:08;0.70;56.50
46366;DHT22;32073;49.166;8.076;2022-12-18T12:40:19;0.70;56.60
46366;DHT22;32073;49.166;8.076;2022-12-18T12:44:33;0.70;56.50
46366;DHT22;32073;49.166;8.076;2022-12-18T12:52:52;0.70;56.40
46366;DHT22;32073;49.166;8.076;2022-12-18T12:57:11;0.60;56.30
46366;DHT22;32073;49.166;8.076;2022-12-18T13:05:54;0.50;56.20
46366;DHT22;32073;49.166;8.076;2022-12-18T13:14:40;0.40;56.40
46366;DHT22;32073;49.166;8.076;2022-12-18T13:18:51;0.40;56.60
46366;DHT22;32073;49.166;8.076;2022-12-18T13:22:54;0.40;56.50
46366;DHT22;32073;49.166;8.076;2022-12-18T13:26:55;0.50;56.60
46366;DHT22;32073;49.166;8.076;2022-12-18T13:30:57;0.50;56.50
46366;DHT22;32073;49.166;8.076;2022-12-18T13:39:34;0.50;56.60
46366;DHT22;32073;49.166;8.076;2022-12-18T13:43:53;0.60;57.40
46366;DHT22;32073;49.166;8.076;2022-12-18T13:47:58;0.60;56.70
46366;DHT22;32073;49.166;8.076;2022-12-18T13:51:59;0.70;56.90
46366;DHT22;32073;49.166;8.076;2022-12-18T13:55:59;0.70;56.80
46366;DHT22;32073;49.166;8.076;2022-12-18T14:00:24;0.80;56.90
46366;DHT22;32073;49.166;8.076;2022-12-18T14:08:34;0.80;56.60
46366;DHT22;32073;49.166;8.076;2022-12-18T14:12:38;0.80;56.60
46366;DHT22;32073;49.166;8.076;2022-12-18T14:16:57;0.80;56.60
46366;DHT22;32073;49.166;8.076;2022-12-18T14:20:59;0.90;56.60
46366;DHT22;32073;49.166;8.076;2022-12-18T14:25:23;0.80;56.50
46366;DHT22;32073;49.166;8.076;2022-12-18T14:29:29;0.80;56.50
46366;DHT22;32073;49.166;8.076;2022-12-18T14:33:30;0.80;56.70
46366;DHT22;32073;49.166;8.076;2022-12-18T14:37:31;0.80;56.80
46366;DHT22;32073;49.166;8.076;2022-12-18T14:41:31;0.80;56.70
46366;DHT22;32073;49.166;8.076;2022-12-18T14:49:42;0.70;56.60
46366;DHT22;32073;49.166;8.076;2022-12-18T14:53:46;0.70;56.60
46366;DHT22;32073;49.166;8.076;2022-12-18T14:57:54;0.70;56.70
46366;DHT22;32073;49.166;8.076;2022-12-18T15:06:26;0.70;56.80
46366;DHT22;32073;49.166;8.076;2022-12-18T15:10:30;0.70;56.80
46366;DHT22;32073;49.166;8.076;2022-12-18T15:14:40;0.70;56.80
46366;DHT22;32073;49.166;8.076;2022-12-18T15:18:41;0.70;56.80
46366;DHT22;32073;49.166;8.076;2022-12-18T15:22:42;0.70;56.80
46366;DHT22;32073;49.166;8.076;2022-12-18T15:26:43;0.60;56.70
46366;DHT22;32073;49.166;8.076;2022-12-18T15:31:00;0.60;56.80
46366;DHT22;32073;49.166;8.076;2022-12-18T15:39:12;0.50;56.80
46366;DHT22;32073;49.166;8.076;2022-12-18T15:43:13;0.60;56.90
46366;DHT22;32073;49.166;8.076;2022-12-18T15:47:32;0.60;57.00
46366;DHT22;32073;49.166;8.076;2022-12-18T15:51:37;0.70;57.20
46366;DHT22;32073;49.166;8.076;2022-12-18T15:55:38;0.70;57.30
46366;DHT22;32073;49.166;8.076;2022-12-18T15:59:57;0.80;57.30
46366;DHT22;32073;49.166;8.076;2022-12-18T16:03:58;0.80;57.30
46366;DHT22;32073;49.166;8.076;2022-12-18T16:07:59;0.90;57.30
46366;DHT22;32073;49.166;8.076;2022-12-18T16:11:59;0.90;57.30
46366;DHT22;32073;49.166;8.076;2022-12-18T16:16:00;1.00;57.40
46366;DHT22;32073;49.166;8.076;2022-12-18T16:20:01;1.00;57.40
46366;DHT22;32073;49.166;8.076;2022-12-18T16:24:02;1.00;57.40
46366;DHT22;32073;49.166;8.076;2022-12-18T16:28:02;1.10;57.50
46366;DHT22;32073;49.166;8.076;2022-12-18T16:32:03;1.10;57.50
46366;DHT22;32073;49.166;8.076;2022-12-18T16:36:04;1.20;57.50
46366;DHT22;32073;49.166;8.076;2022-12-18T16:40:10;1.20;57.50
46366;DHT22;32073;49.166;8.076;2022-12-18T16:44:12;1.30;57.50
46366;DHT22;32073;49.166;8.076;2022-12-18T16:48:13;1.30;57.50
46366;DHT22;32073;49.166;8.076;2022-12-18T16:52:14;1.30;57.50
46366;DHT22;32073;49.166;8.076;2022-12-18T16:56:15;1.40;57.50
46366;DHT22;32073;49.166;8.076;2022-12-18T17:00:16;1.40;57.50
46366;DHT22;32073;49.166;8.076;2022-12-18T17:04:17;1.40;57.40
46366;DHT22;32073;49.166;8.076;2022-12-18T17:08:20;1.40;57.40
46366;DHT22;32073;49.166;8.076;2022-12-18T17:12:21;1.40;57.50
46366;DHT22;32073;49.166;8.076;2022-12-18T17:16:23;1.40;57.50
46366;DHT22;32073;49.166;8.076;2022-12-18T17:20:25;1.40;57.40
46366;DHT22;32073;49.166;8.076;2022-12-18T17:24:26;1.50;57.40
46366;DHT22;32073;49.166;8.076;2022-12-18T17:28:27;1.40;57.30
46366;DHT22;32073;49.166;8.076;2022-12-18T17:32:28;1.40;57.40
46366;DHT22;32073;49.166;8.076;2022-12-18T17:36:29;1.40;57.30
46366;DHT22;32073;49.166;8.076;2022-12-18T17:40:32;1.40;57.40
46366;DHT22;32073;49.166;8.076;2022-12-18T17:44:33;1.40;57.40
46366;DHT22;32073;49.166;8.076;2022-12-18T17:48:34;1.40;57.40
46366;DHT22;32073;49.166;8.076;2022-12-18T17:52:34;1.50;57.50
46366;DHT22;32073;49.166;8.076;2022-12-18T17:56:36;1.50;57.50
46366;DHT22;32073;49.166;8.076;2022-12-18T18:00:38;1.50;57.50
46366;DHT22;32073;49.166;8.076;2022-12-18T18:04:39;1.50;57.50
46366;DHT22;32073;49.166;8.076;2022-12-18T18:08:40;1.50;57.50
46366;DHT22;32073;49.166;8.076;2022-12-18T18:12:41;1.50;57.40
46366;DHT22;32073;49.166;8.076;2022-12-18T18:17:00;1.50;57.50
46366;DHT22;32073;49.166;8.076;2022-12-18T18:21:05;1.50;57.50
46366;DHT22;32073;49.166;8.076;2022-12-18T18:25:07;1.60;57.70
46366;DHT22;32073;49.166;8.076;2022-12-18T18:29:10;1.60;57.70
46366;DHT22;32073;49.166;8.076;2022-12-18T18:33:14;1.60;57.70
46366;DHT22;32073;49.166;8.076;2022-12-18T18:37:15;1.70;58.40
46366;DHT22;32073;49.166;8.076;2022-12-18T18:41:16;1.70;57.80
46366;DHT22;32073;49.166;8.076;2022-12-18T18:45:17;1.80;57.80
46366;DHT22;32073;49.166;8.076;2022-12-18T18:49:18;1.80;57.80
46366;DHT22;32073;49.166;8.076;2022-12-18T18:53:18;1.90;57.80
46366;DHT22;32073;49.166;8.076;2022-12-18T18:57:19;1.90;57.80
46366;DHT22;32073;49.166;8.076;2022-12-18T19:01:21;2.00;57.90
46366;DHT22;32073;49.166;8.076;2022-12-18T19:05:22;2.00;57.80
46366;DHT22;32073;49.166;8.076;2022-12-18T19:09:22;2.00;57.80
46366;DHT22;32073;49.166;8.076;2022-12-18T19:13:26;2.00;57.80
46366;DHT22;32073;49.166;8.076;2022-12-18T19:17:28;2.10;57.80
46366;DHT22;32073;49.166;8.076;2022-12-18T19:21:30;2.10;57.80
46366;DHT22;32073;49.166;8.076;2022-12-18T19:25:31;2.10;57.70
46366;DHT22;32073;49.166;8.076;2022-12-18T19:29:36;2.10;57.80
46366;DHT22;32073;49.166;8.076;2022-12-18T19:33:39;2.20;57.80
46366;DHT22;32073;49.166;8.076;2022-12-18T19:37:41;2.20;57.70
46366;DHT22;32073;49.166;8.076;2022-12-18T19:41:43;2.20;57.70
46366;DHT22;32073;49.166;8.076;2022-12-18T19:45:44;2.20;57.70
46366;DHT22;32073;49.166;8.076;2022-12-18T19:49:44;2.20;57.80
46366;DHT22;32073;49.166;8.076;2022-12-18T19:53:45;2.30;57.90
46366;DHT22;32073;49.166;8.076;2022-12-18T19:57:46;2.30;57.90
46366;DHT22;32073;49.166;8.076;2022-12-18T20:01:47;2.30;57.90
46366;DHT22;32073;49.166;8.076;2022-12-18T20:05:49;2.30;57.80
46366;DHT22;32073;49.166;8.076;2022-12-18T20:09:50;2.40;57.80
46366;DHT22;32073;49.166;8.076;2022-12-18T20:13:50;2.40;57.80
46366;DHT22;32073;49.166;8.076;2022-12-18T20:17:51;2.40;57.70
46366;DHT22;32073;49.166;8.076;2022-12-18T20:21:52;2.40;57.70
46366;DHT22;32073;49.166;8.076;2022-12-18T20:25:54;2.40;57.70
46366;DHT22;32073;49.166;8.076;2022-12-18T20:29:56;2.40;57.70
46366;DHT22;32073;49.166;8.076;2022-12-18T20:33:57;2.40;57.80
46366;DHT22;32073;49.166;8.076;2022-12-18T20:37:58;2.40;57.80
46366;DHT22;32073;49.166;8.076;2022-12-18T20:41:58;2.50;57.90
46366;DHT22;32073;49.166;8.076;2022-12-18T20:46:04;2.50;57.90
46366;DHT22;32073;49.166;8.076;2022-12-18T20:50:06;2.50;57.80
46366;DHT22;32073;49.166;8.076;2022-12-18T20:54:07;2.50;57.80
46366;DHT22;32073;49.166;8.076;2022-12-18T20:58:08;2.50;57.80
46366;DHT22;32073;49.166;8.076;2022-12-18T21:02:11;2.60;57.90
46366;DHT22;32073;49.166;8.076;2022-12-18T21:06:14;2.60;57.90
46366;DHT22;32073;49.166;8.076;2022-12-18T21:10:16;2.70;58.00
46366;DHT22;32073;49.166;8.076;2022-12-18T21:14:25;2.70;57.90
46366;DHT22;32073;49.166;8.076;2022-12-18T21:18:28;2.80;58.00
46366;DHT22;32073;49.166;8.076;2022-12-18T21:22:29;2.80;58.10
46366;DHT22;32073;49.166;8.076;2022-12-18T21:26:29;2.90;58.00
46366;DHT22;32073;49.166;8.076;2022-12-18T21:30:31;2.90;57.90
46366;DHT22;32073;49.166;8.076;2022-12-18T21:34:32;2.90;58.00
46366;DHT22;32073;49.166;8.076;2022-12-18T21:38:33;3.00;58.00
46366;DHT22;32073;49.166;8.076;2022-12-18T21:42:34;3.00;58.00
46366;DHT22;32073;49.166;8.076;2022-12-18T21:46:53;3.10;58.00
46366;DHT22;32073;49.166;8.076;2022-12-18T21:50:54;3.20;58.10
46366;DHT22;32073;49.166;8.076;2022-12-18T21:54:54;3.20;58.00
46366;DHT22;32073;49.166;8.076;2022-12-18T21:58:55;3.20;57.80
46366;DHT22;32073;49.166;8.076;2022-12-18T22:02:56;3.20;57.70
46366;DHT22;32073;49.166;8.076;2022-12-18T22:06:56;3.20;57.70
46366;DHT22;32073;49.166;8.076;2022-12-18T22:10:57;3.20;57.70
46366;DHT22;32073;49.166;8.076;2022-12-18T22:14:58;3.20;57.60
46366;DHT22;32073;49.166;8.076;2022-12-18T22:18:59;3.20;57.70
46366;DHT22;32073;49.166;8.076;2022-12-18T22:23:00;3.20;57.70
46366;DHT22;32073;49.166;8.076;2022-12-18T22:27:00;3.20;57.70
46366;DHT22;32073;49.166;8.076;2022-12-18T22:31:01;3.20;57.80
46366;DHT22;32073;49.166;8.076;2022-12-18T22:35:04;3.30;57.80
46366;DHT22;32073;49.166;8.076;2022-12-18T22:39:16;3.30;57.70
46366;DHT22;32073;49.166;8.076;2022-12-18T22:43:24;3.30;57.60
46366;DHT22;32073;49.166;8.076;2022-12-18T22:47:25;3.30;57.60
46366;DHT22;32073;49.166;8.076;2022-12-18T22:51:26;3.40;57.60
46366;DHT22;32073;49.166;8.076;2022-12-18T22:55:26;3.40;57.50
46366;DHT22;32073;49.166;8.076;2022-12-18T22:59:27;3.40;57.50
46366;DHT22;32073;49.166;8.076;2022-12-18T23:03:27;3.40;57.60
46366;DHT22;32073;49.166;8.076;2022-12-18T23:07:28;3.40;57.70
46366;DHT22;32073;49.166;8.076;2022-12-18T23:11:29;3.50;57.70
46366;DHT22;32073;49.166;8.076;2022-12-18T23:15:30;3.50;57.60
46366;DHT22;32073;49.166;8.076;2022-12-18T23:19:31;3.50;57.60
46366;DHT22;32073;49.166;8.076;2022-12-18T23:23:35;3.60;57.60
46366;DHT22;32073;49.166;8.076;2022-12-18T23:27:36;3.60;57.60
46366;DHT22;32073;49.166;8.076;2022-12-18T23:31:38;3.60;57.50
46366;DHT22;32073;49.166;8.076;2022-12-18T23:35:38;3.60;57.40
46366;DHT22;32073;49.166;8.076;2022-12-18T23:39:39;3.70;57.40
46366;DHT22;32073;49.166;8.076;2022-12-18T23:43:40;3.70;57.40
46366;DHT22;32073;49.166;8.076;2022-12-18T23:47:42;3.70;57.40
46366;DHT22;32073;49.166;8.076;2022-12-18T23:51:42;3.70;57.40
46366;DHT22;32073;49.166;8.076;2022-12-18T23:55:43;3.70;57.40
46366;DHT22;32073;49.166;8.076;2022-12-18T23:59:44;3.70;57.80
